sensor_id;sensor_type;location;lat;lon;timestamp;P1;durP1;ratioP1;P2;durP2;ratioP2
9559;SDS011;4818;50.860;4.648;2023-11-21T00:00:15;69.45;;;27.98;;
9559;SDS011;4818;50.860;4.648;2023-11-21T00:02:42;63.28;;;27.27;;
9559;SDS011;4818;50.860;4.648;2023-11-21T00:05:09;64.40;;;27.85;;
9559;SDS011;4818;50.860;4.648;2023-11-21T00:07:36;68.43;;;29.15;;
9559;SDS011;4818;50.860;4.648;2023-11-21T00:10:02;67.45;;;28.65;;
9559;SDS011;4818;50.860;4.648;2023-11-21T00:12:30;61.97;;;25.98;;
9559;SDS011;4818;50.860;4.648;2023-11-21T00:14:58;56.05;;;24.73;;
9559;SDS011;4818;50.860;4.648;2023-11-21T00:17:24;65.45;;;28.77;;
9559;SDS011;4818;50.860;4.648;2023-11-21T00:19:51;57.85;;;24.48;;
9559;SDS011;4818;50.860;4.648;2023-11-21T00:22:19;78.23;;;29.67;;
9559;SDS011;4818;50.860;4.648;2023-11-21T00:24:46;62.50;;;26.83;;
9559;SDS011;4818;50.860;4.648;2023-11-21T00:27:13;72.55;;;27.98;;
9559;SDS011;4818;50.860;4.648;2023-11-21T00:29:39;59.75;;;26.00;;
9559;SDS011;4818;50.860;4.648;2023-11-21T00:32:06;61.30;;;25.45;;
9559;SDS011;4818;50.860;4.648;2023-11-21T00:34:32;66.25;;;27.63;;
9559;SDS011;4818;50.860;4.648;2023-11-21T00:36:59;73.03;;;29.63;;
9559;SDS011;4818;50.860;4.648;2023-11-21T00:39:25;73.90;;;28.42;;
9559;SDS011;4818;50.860;4.648;2023-11-21T00:41:52;68.15;;;27.77;;
9559;SDS011;4818;50.860;4.648;2023-11-21T00:44:18;66.32;;;26.35;;
9559;SDS011;4818;50.860;4.648;2023-11-21T00:46:44;62.67;;;26.15;;
9559;SDS011;4818;50.860;4.648;2023-11-21T00:49:10;63.80;;;25.98;;
9559;SDS011;4818;50.860;4.648;2023-11-21T00:51:37;63.55;;;26.80;;
9559;SDS011;4818;50.860;4.648;2023-11-21T00:54:03;57.55;;;24.10;;
9559;SDS011;4818;50.860;4.648;2023-11-21T00:56:29;60.08;;;24.98;;
9559;SDS011;4818;50.860;4.648;2023-11-21T00:58:55;58.45;;;23.90;;
9559;SDS011;4818;50.860;4.648;2023-11-21T01:01:21;66.25;;;25.90;;
9559;SDS011;4818;50.860;4.648;2023-11-21T01:03:48;52.35;;;23.05;;
9559;SDS011;4818;50.860;4.648;2023-11-21T01:06:15;55.67;;;24.35;;
9559;SDS011;4818;50.860;4.648;2023-11-21T01:08:41;58.55;;;24.48;;
9559;SDS011;4818;50.860;4.648;2023-11-21T01:11:07;56.33;;;23.13;;
9559;SDS011;4818;50.860;4.648;2023-11-21T01:13:34;55.25;;;23.25;;
9559;SDS011;4818;50.860;4.648;2023-11-21T01:16:01;63.67;;;26.45;;
9559;SDS011;4818;50.860;4.648;2023-11-21T01:18:27;61.05;;;26.67;;
9559;SDS011;4818;50.860;4.648;2023-11-21T01:20:54;56.65;;;25.10;;
9559;SDS011;4818;50.860;4.648;2023-11-21T01:23:20;53.45;;;24.05;;
9559;SDS011;4818;50.860;4.648;2023-11-21T01:25:47;51.70;;;24.88;;
9559;SDS011;4818;50.860;4.648;2023-11-21T01:28:13;64.90;;;24.70;;
9559;SDS011;4818;50.860;4.648;2023-11-21T01:30:39;48.42;;;23.52;;
9559;SDS011;4818;50.860;4.648;2023-11-21T01:33:05;54.78;;;24.27;;
9559;SDS011;4818;50.860;4.648;2023-11-21T01:35:32;43.05;;;20.00;;
9559;SDS011;4818;50.860;4.648;2023-11-21T01:37:59;47.95;;;22.05;;
9559;SDS011;4818;50.860;4.648;2023-11-21T01:40:25;51.05;;;22.35;;
9559;SDS011;4818;50.860;4.648;2023-11-21T01:42:52;53.67;;;23.35;;
9559;SDS011;4818;50.860;4.648;2023-11-21T01:45:19;58.17;;;23.17;;
9559;SDS011;4818;50.860;4.648;2023-11-21T01:47:45;47.83;;;21.15;;
9559;SDS011;4818;50.860;4.648;2023-11-21T01:50:13;55.35;;;23.42;;
9559;SDS011;4818;50.860;4.648;2023-11-21T01:52:41;61.70;;;26.38;;
9559;SDS011;4818;50.860;4.648;2023-11-21T01:55:08;61.80;;;25.40;;
9559;SDS011;4818;50.860;4.648;2023-11-21T01:57:35;53.78;;;23.02;;
9559;SDS011;4818;50.860;4.648;2023-11-21T02:00:02;56.58;;;24.60;;
9559;SDS011;4818;50.860;4.648;2023-11-21T02:02:44;64.97;;;24.70;;
9559;SDS011;4818;50.860;4.648;2023-11-21T02:07:38;62.88;;;22.17;;
9559;SDS011;4818;50.860;4.648;2023-11-21T02:10:05;62.08;;;24.55;;
9559;SDS011;4818;50.860;4.648;2023-11-21T02:12:32;64.15;;;23.75;;
9559;SDS011;4818;50.860;4.648;2023-11-21T02:14:58;67.18;;;25.48;;
9559;SDS011;4818;50.860;4.648;2023-11-21T02:17:24;60.83;;;22.45;;
9559;SDS011;4818;50.860;4.648;2023-11-21T02:19:52;56.53;;;22.20;;
9559;SDS011;4818;50.860;4.648;2023-11-21T02:22:19;57.92;;;22.33;;
9559;SDS011;4818;50.860;4.648;2023-11-21T02:24:45;61.35;;;21.27;;
9559;SDS011;4818;50.860;4.648;2023-11-21T02:27:12;66.00;;;23.02;;
9559;SDS011;4818;50.860;4.648;2023-11-21T02:29:42;58.40;;;21.75;;
9559;SDS011;4818;50.860;4.648;2023-11-21T02:32:08;55.50;;;21.67;;
9559;SDS011;4818;50.860;4.648;2023-11-21T02:34:35;58.78;;;20.92;;
9559;SDS011;4818;50.860;4.648;2023-11-21T02:37:03;63.75;;;22.02;;
9559;SDS011;4818;50.860;4.648;2023-11-21T02:39:31;76.72;;;24.30;;
9559;SDS011;4818;50.860;4.648;2023-11-21T02:41:58;73.32;;;24.67;;
9559;SDS011;4818;50.860;4.648;2023-11-21T02:44:24;60.85;;;22.20;;
9559;SDS011;4818;50.860;4.648;2023-11-21T02:46:51;70.20;;;22.25;;
9559;SDS011;4818;50.860;4.648;2023-11-21T02:49:17;74.40;;;23.95;;
9559;SDS011;4818;50.860;4.648;2023-11-21T02:51:43;78.38;;;25.05;;
9559;SDS011;4818;50.860;4.648;2023-11-21T02:54:10;77.00;;;23.38;;
9559;SDS011;4818;50.860;4.648;2023-11-21T02:56:37;68.50;;;22.58;;
9559;SDS011;4818;50.860;4.648;2023-11-21T02:59:05;66.63;;;23.27;;
9559;SDS011;4818;50.860;4.648;2023-11-21T03:01:31;73.60;;;24.90;;
9559;SDS011;4818;50.860;4.648;2023-11-21T03:03:59;66.88;;;22.38;;
9559;SDS011;4818;50.860;4.648;2023-11-21T03:06:26;73.00;;;25.25;;
9559;SDS011;4818;50.860;4.648;2023-11-21T03:08:53;68.05;;;23.67;;
9559;SDS011;4818;50.860;4.648;2023-11-21T03:11:19;68.40;;;23.58;;
9559;SDS011;4818;50.860;4.648;2023-11-21T03:13:45;70.85;;;24.17;;
9559;SDS011;4818;50.860;4.648;2023-11-21T03:16:13;53.13;;;21.70;;
9559;SDS011;4818;50.860;4.648;2023-11-21T03:18:39;75.90;;;24.55;;
9559;SDS011;4818;50.860;4.648;2023-11-21T03:21:06;72.47;;;24.80;;
9559;SDS011;4818;50.860;4.648;2023-11-21T03:23:34;81.18;;;26.10;;
9559;SDS011;4818;50.860;4.648;2023-11-21T03:26:01;73.85;;;24.88;;
9559;SDS011;4818;50.860;4.648;2023-11-21T03:28:27;66.93;;;24.83;;
9559;SDS011;4818;50.860;4.648;2023-11-21T03:30:53;80.47;;;25.00;;
9559;SDS011;4818;50.860;4.648;2023-11-21T03:33:20;68.88;;;24.45;;
9559;SDS011;4818;50.860;4.648;2023-11-21T03:35:46;55.83;;;21.42;;
9559;SDS011;4818;50.860;4.648;2023-11-21T03:38:12;68.95;;;23.60;;
9559;SDS011;4818;50.860;4.648;2023-11-21T03:40:39;72.93;;;23.30;;
9559;SDS011;4818;50.860;4.648;2023-11-21T03:43:05;70.75;;;23.27;;
9559;SDS011;4818;50.860;4.648;2023-11-21T03:45:32;68.63;;;23.98;;
9559;SDS011;4818;50.860;4.648;2023-11-21T03:47:58;64.78;;;24.05;;
9559;SDS011;4818;50.860;4.648;2023-11-21T03:50:27;72.82;;;23.90;;
9559;SDS011;4818;50.860;4.648;2023-11-21T03:52:53;71.18;;;23.65;;
9559;SDS011;4818;50.860;4.648;2023-11-21T03:55:19;62.08;;;22.52;;
9559;SDS011;4818;50.860;4.648;2023-11-21T03:57:45;57.15;;;22.42;;
9559;SDS011;4818;50.860;4.648;2023-11-21T04:00:12;67.45;;;23.45;;
9559;SDS011;4818;50.860;4.648;2023-11-21T04:02:38;62.15;;;22.92;;
9559;SDS011;4818;50.860;4.648;2023-11-21T04:05:05;65.75;;;23.27;;
9559;SDS011;4818;50.860;4.648;2023-11-21T04:07:32;67.20;;;22.55;;
9559;SDS011;4818;50.860;4.648;2023-11-21T04:09:59;59.97;;;20.63;;
9559;SDS011;4818;50.860;4.648;2023-11-21T04:12:25;53.95;;;20.48;;
9559;SDS011;4818;50.860;4.648;2023-11-21T04:14:51;62.97;;;23.02;;
9559;SDS011;4818;50.860;4.648;2023-11-21T04:17:18;66.88;;;23.08;;
9559;SDS011;4818;50.860;4.648;2023-11-21T04:19:45;71.97;;;24.02;;
9559;SDS011;4818;50.860;4.648;2023-11-21T04:22:11;73.70;;;24.00;;
9559;SDS011;4818;50.860;4.648;2023-11-21T04:24:37;62.88;;;21.92;;
9559;SDS011;4818;50.860;4.648;2023-11-21T04:27:03;65.72;;;23.05;;
9559;SDS011;4818;50.860;4.648;2023-11-21T04:29:30;55.63;;;20.30;;
9559;SDS011;4818;50.860;4.648;2023-11-21T04:31:57;51.20;;;19.35;;
9559;SDS011;4818;50.860;4.648;2023-11-21T04:34:23;54.03;;;20.15;;
9559;SDS011;4818;50.860;4.648;2023-11-21T04:36:50;56.78;;;21.45;;
9559;SDS011;4818;50.860;4.648;2023-11-21T04:39:16;57.42;;;20.98;;
9559;SDS011;4818;50.860;4.648;2023-11-21T04:41:48;57.55;;;18.42;;
9559;SDS011;4818;50.860;4.648;2023-11-21T04:44:14;67.00;;;23.27;;
9559;SDS011;4818;50.860;4.648;2023-11-21T04:46:41;52.20;;;19.45;;
9559;SDS011;4818;50.860;4.648;2023-11-21T04:49:07;65.57;;;22.95;;
9559;SDS011;4818;50.860;4.648;2023-11-21T04:51:36;63.67;;;19.92;;
9559;SDS011;4818;50.860;4.648;2023-11-21T04:54:02;56.75;;;20.15;;
9559;SDS011;4818;50.860;4.648;2023-11-21T04:56:28;51.15;;;19.67;;
9559;SDS011;4818;50.860;4.648;2023-11-21T04:58:55;50.13;;;18.63;;
9559;SDS011;4818;50.860;4.648;2023-11-21T05:03:50;65.72;;;24.05;;
9559;SDS011;4818;50.860;4.648;2023-11-21T05:06:17;57.40;;;20.70;;
9559;SDS011;4818;50.860;4.648;2023-11-21T05:08:43;53.08;;;21.02;;
9559;SDS011;4818;50.860;4.648;2023-11-21T05:11:22;53.33;;;21.27;;
9559;SDS011;4818;50.860;4.648;2023-11-21T05:13:48;54.77;;;19.27;;
9559;SDS011;4818;50.860;4.648;2023-11-21T05:16:15;59.03;;;22.20;;
9559;SDS011;4818;50.860;4.648;2023-11-21T05:18:42;58.38;;;20.95;;
9559;SDS011;4818;50.860;4.648;2023-11-21T05:21:08;60.08;;;21.27;;
9559;SDS011;4818;50.860;4.648;2023-11-21T05:23:34;63.42;;;22.17;;
9559;SDS011;4818;50.860;4.648;2023-11-21T05:26:02;67.68;;;23.55;;
9559;SDS011;4818;50.860;4.648;2023-11-21T05:28:28;67.22;;;22.15;;
9559;SDS011;4818;50.860;4.648;2023-11-21T05:30:55;73.15;;;23.10;;
9559;SDS011;4818;50.860;4.648;2023-11-21T05:33:21;54.92;;;20.42;;
9559;SDS011;4818;50.860;4.648;2023-11-21T05:35:50;71.30;;;23.17;;
9559;SDS011;4818;50.860;4.648;2023-11-21T05:38:17;61.03;;;22.35;;
9559;SDS011;4818;50.860;4.648;2023-11-21T05:40:43;60.97;;;21.48;;
9559;SDS011;4818;50.860;4.648;2023-11-21T05:43:13;48.95;;;18.77;;
9559;SDS011;4818;50.860;4.648;2023-11-21T05:45:40;58.15;;;19.95;;
9559;SDS011;4818;50.860;4.648;2023-11-21T05:48:07;51.65;;;18.23;;
9559;SDS011;4818;50.860;4.648;2023-11-21T05:50:33;41.97;;;18.17;;
9559;SDS011;4818;50.860;4.648;2023-11-21T05:52:59;56.55;;;20.52;;
9559;SDS011;4818;50.860;4.648;2023-11-21T05:55:25;54.20;;;20.20;;
9559;SDS011;4818;50.860;4.648;2023-11-21T05:57:52;39.55;;;16.58;;
9559;SDS011;4818;50.860;4.648;2023-11-21T06:00:19;41.70;;;17.42;;
9559;SDS011;4818;50.860;4.648;2023-11-21T06:02:54;42.72;;;17.40;;
9559;SDS011;4818;50.860;4.648;2023-11-21T06:05:24;36.85;;;15.88;;
9559;SDS011;4818;50.860;4.648;2023-11-21T06:07:55;42.92;;;17.38;;
9559;SDS011;4818;50.860;4.648;2023-11-21T06:10:24;41.92;;;16.70;;
9559;SDS011;4818;50.860;4.648;2023-11-21T06:12:50;36.22;;;14.23;;
9559;SDS011;4818;50.860;4.648;2023-11-21T06:15:17;49.30;;;18.27;;
9559;SDS011;4818;50.860;4.648;2023-11-21T06:17:45;44.85;;;18.40;;
9559;SDS011;4818;50.860;4.648;2023-11-21T06:20:14;38.97;;;16.40;;
9559;SDS011;4818;50.860;4.648;2023-11-21T06:22:44;42.20;;;19.10;;
9559;SDS011;4818;50.860;4.648;2023-11-21T06:25:10;45.42;;;19.58;;
9559;SDS011;4818;50.860;4.648;2023-11-21T06:27:47;53.40;;;22.88;;
9559;SDS011;4818;50.860;4.648;2023-11-21T06:30:14;61.85;;;24.55;;
9559;SDS011;4818;50.860;4.648;2023-11-21T06:32:42;61.42;;;25.90;;
9559;SDS011;4818;50.860;4.648;2023-11-21T06:35:12;58.10;;;24.15;;
9559;SDS011;4818;50.860;4.648;2023-11-21T06:37:38;53.47;;;21.80;;
9559;SDS011;4818;50.860;4.648;2023-11-21T06:40:05;61.28;;;22.98;;
9559;SDS011;4818;50.860;4.648;2023-11-21T06:42:32;53.22;;;23.27;;
9559;SDS011;4818;50.860;4.648;2023-11-21T06:45:03;48.30;;;18.33;;
9559;SDS011;4818;50.860;4.648;2023-11-21T06:47:30;57.78;;;23.55;;
9559;SDS011;4818;50.860;4.648;2023-11-21T06:49:57;51.10;;;22.92;;
9559;SDS011;4818;50.860;4.648;2023-11-21T06:52:23;56.78;;;23.95;;
9559;SDS011;4818;50.860;4.648;2023-11-21T06:54:50;55.35;;;22.23;;
9559;SDS011;4818;50.860;4.648;2023-11-21T06:57:16;59.13;;;25.60;;
9559;SDS011;4818;50.860;4.648;2023-11-21T06:59:43;55.63;;;23.70;;
9559;SDS011;4818;50.860;4.648;2023-11-21T07:02:09;61.95;;;24.42;;
9559;SDS011;4818;50.860;4.648;2023-11-21T07:04:36;57.25;;;24.20;;
9559;SDS011;4818;50.860;4.648;2023-11-21T07:07:03;54.47;;;24.08;;
9559;SDS011;4818;50.860;4.648;2023-11-21T07:09:29;59.47;;;24.67;;
9559;SDS011;4818;50.860;4.648;2023-11-21T07:11:57;60.72;;;24.40;;
9559;SDS011;4818;50.860;4.648;2023-11-21T07:14:24;62.40;;;25.40;;
9559;SDS011;4818;50.860;4.648;2023-11-21T07:16:50;43.70;;;21.02;;
9559;SDS011;4818;50.860;4.648;2023-11-21T07:19:17;63.90;;;25.70;;
9559;SDS011;4818;50.860;4.648;2023-11-21T07:21:45;66.85;;;23.98;;
9559;SDS011;4818;50.860;4.648;2023-11-21T07:24:11;73.72;;;26.75;;
9559;SDS011;4818;50.860;4.648;2023-11-21T07:26:38;56.88;;;21.73;;
9559;SDS011;4818;50.860;4.648;2023-11-21T07:29:04;63.42;;;25.10;;
9559;SDS011;4818;50.860;4.648;2023-11-21T07:31:31;54.33;;;23.58;;
9559;SDS011;4818;50.860;4.648;2023-11-21T07:34:01;54.85;;;22.27;;
9559;SDS011;4818;50.860;4.648;2023-11-21T07:36:28;51.45;;;21.20;;
9559;SDS011;4818;50.860;4.648;2023-11-21T07:38:54;58.05;;;23.45;;
9559;SDS011;4818;50.860;4.648;2023-11-21T07:41:20;54.13;;;22.50;;
9559;SDS011;4818;50.860;4.648;2023-11-21T07:43:47;53.85;;;23.05;;
9559;SDS011;4818;50.860;4.648;2023-11-21T07:46:14;58.40;;;22.13;;
9559;SDS011;4818;50.860;4.648;2023-11-21T07:48:40;51.85;;;22.33;;
9559;SDS011;4818;50.860;4.648;2023-11-21T07:51:07;58.53;;;24.73;;
9559;SDS011;4818;50.860;4.648;2023-11-21T07:53:36;52.03;;;23.85;;
9559;SDS011;4818;50.860;4.648;2023-11-21T07:56:03;59.85;;;25.80;;
9559;SDS011;4818;50.860;4.648;2023-11-21T07:58:30;48.40;;;22.27;;
9559;SDS011;4818;50.860;4.648;2023-11-21T08:00:58;50.78;;;22.98;;
9559;SDS011;4818;50.860;4.648;2023-11-21T08:03:25;47.67;;;22.40;;
9559;SDS011;4818;50.860;4.648;2023-11-21T08:05:58;56.38;;;23.90;;
9559;SDS011;4818;50.860;4.648;2023-11-21T08:08:29;50.67;;;22.85;;
9559;SDS011;4818;50.860;4.648;2023-11-21T08:10:56;51.58;;;24.83;;
9559;SDS011;4818;50.860;4.648;2023-11-21T08:13:25;58.90;;;25.65;;
9559;SDS011;4818;50.860;4.648;2023-11-21T08:15:55;58.00;;;26.38;;
9559;SDS011;4818;50.860;4.648;2023-11-21T08:18:23;60.47;;;26.98;;
9559;SDS011;4818;50.860;4.648;2023-11-21T08:20:50;53.15;;;22.98;;
9559;SDS011;4818;50.860;4.648;2023-11-21T08:23:16;43.63;;;20.88;;
9559;SDS011;4818;50.860;4.648;2023-11-21T08:25:46;49.53;;;23.48;;
9559;SDS011;4818;50.860;4.648;2023-11-21T08:28:12;59.22;;;25.15;;
9559;SDS011;4818;50.860;4.648;2023-11-21T08:30:44;56.08;;;24.63;;
9559;SDS011;4818;50.860;4.648;2023-11-21T08:33:11;54.30;;;23.63;;
9559;SDS011;4818;50.860;4.648;2023-11-21T08:35:38;51.92;;;24.45;;
9559;SDS011;4818;50.860;4.648;2023-11-21T08:38:04;53.28;;;23.73;;
9559;SDS011;4818;50.860;4.648;2023-11-21T08:40:31;50.00;;;23.83;;
9559;SDS011;4818;50.860;4.648;2023-11-21T08:42:58;47.45;;;21.75;;
9559;SDS011;4818;50.860;4.648;2023-11-21T08:45:24;43.55;;;22.05;;
9559;SDS011;4818;50.860;4.648;2023-11-21T08:47:51;46.97;;;23.05;;
9559;SDS011;4818;50.860;4.648;2023-11-21T08:50:17;60.92;;;24.85;;
9559;SDS011;4818;50.860;4.648;2023-11-21T08:52:44;60.90;;;26.70;;
9559;SDS011;4818;50.860;4.648;2023-11-21T08:55:11;63.65;;;25.75;;
9559;SDS011;4818;50.860;4.648;2023-11-21T08:57:38;49.25;;;22.23;;
9559;SDS011;4818;50.860;4.648;2023-11-21T09:00:05;52.78;;;24.35;;
9559;SDS011;4818;50.860;4.648;2023-11-21T09:02:34;42.70;;;21.55;;
9559;SDS011;4818;50.860;4.648;2023-11-21T09:05:04;54.78;;;26.10;;
9559;SDS011;4818;50.860;4.648;2023-11-21T09:07:30;58.22;;;25.33;;
9559;SDS011;4818;50.860;4.648;2023-11-21T09:09:57;53.05;;;22.63;;
9559;SDS011;4818;50.860;4.648;2023-11-21T09:12:23;48.65;;;23.05;;
9559;SDS011;4818;50.860;4.648;2023-11-21T09:14:50;58.90;;;25.17;;
9559;SDS011;4818;50.860;4.648;2023-11-21T09:17:16;57.45;;;22.80;;
9559;SDS011;4818;50.860;4.648;2023-11-21T09:19:44;68.72;;;27.33;;
9559;SDS011;4818;50.860;4.648;2023-11-21T09:22:15;65.13;;;27.02;;
9559;SDS011;4818;50.860;4.648;2023-11-21T09:24:41;59.10;;;25.75;;
9559;SDS011;4818;50.860;4.648;2023-11-21T09:27:08;55.75;;;24.70;;
9559;SDS011;4818;50.860;4.648;2023-11-21T09:29:35;77.40;;;26.98;;
9559;SDS011;4818;50.860;4.648;2023-11-21T09:32:04;53.97;;;24.83;;
9559;SDS011;4818;50.860;4.648;2023-11-21T09:34:33;63.70;;;26.60;;
9559;SDS011;4818;50.860;4.648;2023-11-21T09:37:03;65.38;;;26.75;;
9559;SDS011;4818;50.860;4.648;2023-11-21T09:39:32;59.08;;;26.40;;
9559;SDS011;4818;50.860;4.648;2023-11-21T09:42:15;59.35;;;25.88;;
9559;SDS011;4818;50.860;4.648;2023-11-21T09:47:29;79.10;;;28.05;;
9559;SDS011;4818;50.860;4.648;2023-11-21T09:49:56;58.30;;;25.67;;
9559;SDS011;4818;50.860;4.648;2023-11-21T09:52:26;66.55;;;26.17;;
9559;SDS011;4818;50.860;4.648;2023-11-21T09:54:53;62.92;;;26.40;;
9559;SDS011;4818;50.860;4.648;2023-11-21T09:57:23;57.28;;;24.17;;
9559;SDS011;4818;50.860;4.648;2023-11-21T09:59:52;61.20;;;25.60;;
9559;SDS011;4818;50.860;4.648;2023-11-21T10:02:24;60.17;;;25.25;;
9559;SDS011;4818;50.860;4.648;2023-11-21T10:04:53;49.47;;;21.17;;
9559;SDS011;4818;50.860;4.648;2023-11-21T10:07:20;51.33;;;21.25;;
9559;SDS011;4818;50.860;4.648;2023-11-21T10:09:46;54.40;;;21.95;;
9559;SDS011;4818;50.860;4.648;2023-11-21T10:12:14;54.42;;;22.17;;
9559;SDS011;4818;50.860;4.648;2023-11-21T10:14:42;54.03;;;21.45;;
9559;SDS011;4818;50.860;4.648;2023-11-21T10:17:12;55.80;;;20.30;;
9559;SDS011;4818;50.860;4.648;2023-11-21T10:19:39;57.83;;;20.23;;
9559;SDS011;4818;50.860;4.648;2023-11-21T10:22:05;58.95;;;20.30;;
9559;SDS011;4818;50.860;4.648;2023-11-21T10:24:32;73.80;;;23.50;;
9559;SDS011;4818;50.860;4.648;2023-11-21T10:26:59;69.70;;;23.42;;
9559;SDS011;4818;50.860;4.648;2023-11-21T10:29:30;78.15;;;26.17;;
9559;SDS011;4818;50.860;4.648;2023-11-21T10:32:01;74.70;;;26.17;;
9559;SDS011;4818;50.860;4.648;2023-11-21T10:34:27;81.03;;;26.73;;
9559;SDS011;4818;50.860;4.648;2023-11-21T10:36:54;78.57;;;28.08;;
9559;SDS011;4818;50.860;4.648;2023-11-21T10:39:23;87.40;;;28.40;;
9559;SDS011;4818;50.860;4.648;2023-11-21T10:44:19;85.53;;;27.60;;
9559;SDS011;4818;50.860;4.648;2023-11-21T10:46:47;79.85;;;28.20;;
9559;SDS011;4818;50.860;4.648;2023-11-21T10:49:16;81.88;;;28.33;;
9559;SDS011;4818;50.860;4.648;2023-11-21T10:51:43;75.07;;;24.55;;
9559;SDS011;4818;50.860;4.648;2023-11-21T10:54:10;84.38;;;26.50;;
9559;SDS011;4818;50.860;4.648;2023-11-21T10:56:37;73.75;;;28.10;;
9559;SDS011;4818;50.860;4.648;2023-11-21T10:59:07;70.43;;;26.05;;
9559;SDS011;4818;50.860;4.648;2023-11-21T11:01:41;74.65;;;26.33;;
9559;SDS011;4818;50.860;4.648;2023-11-21T11:04:08;72.03;;;26.35;;
9559;SDS011;4818;50.860;4.648;2023-11-21T11:06:40;62.78;;;25.55;;
9559;SDS011;4818;50.860;4.648;2023-11-21T11:09:07;62.53;;;25.65;;
9559;SDS011;4818;50.860;4.648;2023-11-21T11:11:34;59.25;;;25.02;;
9559;SDS011;4818;50.860;4.648;2023-11-21T11:14:04;61.55;;;23.63;;
9559;SDS011;4818;50.860;4.648;2023-11-21T11:16:31;59.60;;;24.25;;
9559;SDS011;4818;50.860;4.648;2023-11-21T11:18:59;57.75;;;22.70;;
9559;SDS011;4818;50.860;4.648;2023-11-21T11:21:27;60.33;;;23.88;;
9559;SDS011;4818;50.860;4.648;2023-11-21T11:26:53;58.08;;;23.15;;
9559;SDS011;4818;50.860;4.648;2023-11-21T11:29:39;62.50;;;25.48;;
9559;SDS011;4818;50.860;4.648;2023-11-21T11:34:41;61.13;;;24.88;;
9559;SDS011;4818;50.860;4.648;2023-11-21T11:37:10;56.17;;;22.52;;
9559;SDS011;4818;50.860;4.648;2023-11-21T11:39:38;59.47;;;22.17;;
9559;SDS011;4818;50.860;4.648;2023-11-21T11:42:07;62.20;;;22.65;;
9559;SDS011;4818;50.860;4.648;2023-11-21T11:47:29;57.10;;;22.75;;
9559;SDS011;4818;50.860;4.648;2023-11-21T11:50:07;54.65;;;21.90;;
9559;SDS011;4818;50.860;4.648;2023-11-21T11:52:48;67.00;;;21.60;;
9559;SDS011;4818;50.860;4.648;2023-11-21T11:55:23;57.67;;;21.80;;
9559;SDS011;4818;50.860;4.648;2023-11-21T12:00:16;58.03;;;24.90;;
9559;SDS011;4818;50.860;4.648;2023-11-21T12:02:48;59.05;;;22.50;;
9559;SDS011;4818;50.860;4.648;2023-11-21T12:05:15;52.00;;;21.92;;
9559;SDS011;4818;50.860;4.648;2023-11-21T12:10:21;52.22;;;21.73;;
9559;SDS011;4818;50.860;4.648;2023-11-21T12:12:54;52.17;;;20.30;;
9559;SDS011;4818;50.860;4.648;2023-11-21T12:15:20;46.78;;;19.88;;
9559;SDS011;4818;50.860;4.648;2023-11-21T12:17:47;50.95;;;20.85;;
9559;SDS011;4818;50.860;4.648;2023-11-21T12:20:20;40.75;;;18.35;;
9559;SDS011;4818;50.860;4.648;2023-11-21T12:22:48;43.90;;;19.60;;
9559;SDS011;4818;50.860;4.648;2023-11-21T12:25:14;42.53;;;18.00;;
9559;SDS011;4818;50.860;4.648;2023-11-21T12:27:45;50.58;;;17.25;;
9559;SDS011;4818;50.860;4.648;2023-11-21T12:30:12;29.02;;;13.80;;
9559;SDS011;4818;50.860;4.648;2023-11-21T12:32:42;23.77;;;13.52;;
9559;SDS011;4818;50.860;4.648;2023-11-21T12:35:09;24.13;;;11.68;;
9559;SDS011;4818;50.860;4.648;2023-11-21T12:37:40;24.20;;;11.90;;
9559;SDS011;4818;50.860;4.648;2023-11-21T12:40:08;21.63;;;10.35;;
9559;SDS011;4818;50.860;4.648;2023-11-21T12:42:59;22.23;;;11.55;;
9559;SDS011;4818;50.860;4.648;2023-11-21T12:45:27;20.88;;;10.27;;
9559;SDS011;4818;50.860;4.648;2023-11-21T12:47:54;21.60;;;10.60;;
9559;SDS011;4818;50.860;4.648;2023-11-21T12:50:28;23.23;;;11.23;;
9559;SDS011;4818;50.860;4.648;2023-11-21T12:53:00;21.33;;;10.52;;
9559;SDS011;4818;50.860;4.648;2023-11-21T12:55:29;15.93;;;8.02;;
9559;SDS011;4818;50.860;4.648;2023-11-21T12:57:56;15.02;;;7.82;;
9559;SDS011;4818;50.860;4.648;2023-11-21T13:00:45;13.45;;;7.00;;
9559;SDS011;4818;50.860;4.648;2023-11-21T13:03:12;16.90;;;8.48;;
9559;SDS011;4818;50.860;4.648;2023-11-21T13:05:42;17.35;;;8.35;;
9559;SDS011;4818;50.860;4.648;2023-11-21T13:08:13;19.02;;;9.13;;
9559;SDS011;4818;50.860;4.648;2023-11-21T13:10:45;16.42;;;8.57;;
9559;SDS011;4818;50.860;4.648;2023-11-21T13:13:14;13.35;;;6.38;;
9559;SDS011;4818;50.860;4.648;2023-11-21T13:15:49;15.68;;;8.32;;
9559;SDS011;4818;50.860;4.648;2023-11-21T13:18:16;13.57;;;6.60;;
9559;SDS011;4818;50.860;4.648;2023-11-21T13:20:42;12.43;;;5.95;;
9559;SDS011;4818;50.860;4.648;2023-11-21T13:23:09;10.75;;;5.95;;
9559;SDS011;4818;50.860;4.648;2023-11-21T13:25:41;15.73;;;5.90;;
9559;SDS011;4818;50.860;4.648;2023-11-21T13:28:08;11.68;;;6.00;;
9559;SDS011;4818;50.860;4.648;2023-11-21T13:30:37;11.30;;;6.30;;
9559;SDS011;4818;50.860;4.648;2023-11-21T13:33:05;7.90;;;4.65;;
9559;SDS011;4818;50.860;4.648;2023-11-21T13:35:33;9.88;;;4.88;;
9559;SDS011;4818;50.860;4.648;2023-11-21T13:38:12;10.05;;;4.97;;
9559;SDS011;4818;50.860;4.648;2023-11-21T13:40:40;13.77;;;5.28;;
9559;SDS011;4818;50.860;4.648;2023-11-21T13:43:14;10.65;;;5.05;;
9559;SDS011;4818;50.860;4.648;2023-11-21T13:45:41;10.02;;;4.93;;
9559;SDS011;4818;50.860;4.648;2023-11-21T13:48:08;11.90;;;5.70;;
9559;SDS011;4818;50.860;4.648;2023-11-21T13:50:41;14.77;;;4.80;;
9559;SDS011;4818;50.860;4.648;2023-11-21T13:53:28;9.73;;;4.40;;
9559;SDS011;4818;50.860;4.648;2023-11-21T13:55:54;10.57;;;4.93;;
9559;SDS011;4818;50.860;4.648;2023-11-21T13:58:25;6.80;;;4.63;;
9559;SDS011;4818;50.860;4.648;2023-11-21T14:01:06;8.10;;;3.90;;
9559;SDS011;4818;50.860;4.648;2023-11-21T14:03:50;8.73;;;3.78;;
9559;SDS011;4818;50.860;4.648;2023-11-21T14:06:19;6.72;;;3.50;;
9559;SDS011;4818;50.860;4.648;2023-11-21T14:08:50;11.55;;;4.88;;
9559;SDS011;4818;50.860;4.648;2023-11-21T14:11:18;6.13;;;2.65;;
9559;SDS011;4818;50.860;4.648;2023-11-21T14:13:47;5.18;;;3.28;;
9559;SDS011;4818;50.860;4.648;2023-11-21T14:16:14;3.75;;;2.13;;
9559;SDS011;4818;50.860;4.648;2023-11-21T14:18:44;8.23;;;3.17;;
9559;SDS011;4818;50.860;4.648;2023-11-21T14:21:34;7.72;;;3.33;;
9559;SDS011;4818;50.860;4.648;2023-11-21T14:24:01;6.15;;;2.72;;
9559;SDS011;4818;50.860;4.648;2023-11-21T14:26:28;4.68;;;2.30;;
9559;SDS011;4818;50.860;4.648;2023-11-21T14:28:54;5.05;;;2.85;;
9559;SDS011;4818;50.860;4.648;2023-11-21T14:31:22;4.50;;;2.50;;
9559;SDS011;4818;50.860;4.648;2023-11-21T14:33:49;5.15;;;2.65;;
9559;SDS011;4818;50.860;4.648;2023-11-21T14:36:15;5.72;;;3.03;;
9559;SDS011;4818;50.860;4.648;2023-11-21T14:38:42;6.68;;;3.20;;
9559;SDS011;4818;50.860;4.648;2023-11-21T14:41:08;9.13;;;3.97;;
9559;SDS011;4818;50.860;4.648;2023-11-21T14:43:36;4.20;;;3.03;;
9559;SDS011;4818;50.860;4.648;2023-11-21T14:46:04;5.22;;;3.88;;
9559;SDS011;4818;50.860;4.648;2023-11-21T14:48:35;8.02;;;4.47;;
9559;SDS011;4818;50.860;4.648;2023-11-21T14:51:11;10.52;;;4.13;;
9559;SDS011;4818;50.860;4.648;2023-11-21T14:53:37;8.27;;;4.97;;
9559;SDS011;4818;50.860;4.648;2023-11-21T14:56:22;8.70;;;5.25;;
9559;SDS011;4818;50.860;4.648;2023-11-21T14:59:00;12.07;;;6.10;;
9559;SDS011;4818;50.860;4.648;2023-11-21T15:01:41;11.10;;;5.88;;
9559;SDS011;4818;50.860;4.648;2023-11-21T15:04:23;8.68;;;5.63;;
9559;SDS011;4818;50.860;4.648;2023-11-21T15:06:58;10.13;;;5.88;;
9559;SDS011;4818;50.860;4.648;2023-11-21T15:09:24;9.63;;;5.63;;
9559;SDS011;4818;50.860;4.648;2023-11-21T15:11:56;8.93;;;4.93;;
9559;SDS011;4818;50.860;4.648;2023-11-21T15:14:29;9.13;;;5.10;;
9559;SDS011;4818;50.860;4.648;2023-11-21T15:17:01;7.97;;;4.32;;
9559;SDS011;4818;50.860;4.648;2023-11-21T15:19:28;7.07;;;4.25;;